createdAt,value
2017-10-04T00:02:15.162Z,94.80
2017-10-04T00:04:41.621Z,94.90
2017-10-04T00:07:08.047Z,94.90
2017-10-04T00:09:38.009Z,94.90
2017-10-04T00:12:05.205Z,95.00
2017-10-04T00:14:31.631Z,95.00
2017-10-04T00:16:58.084Z,94.90
2017-10-04T00:19:25.574Z,94.70
2017-10-04T00:21:52.013Z,94.70
2017-10-04T00:24:19.214Z,94.60
2017-10-04T00:26:45.694Z,94.60
2017-10-04T00:29:12.122Z,94.70
2017-10-04T00:31:38.585Z,94.70
2017-10-04T00:34:05.126Z,94.60
2017-10-04T00:36:32.400Z,94.60
2017-10-04T00:38:58.864Z,94.60
2017-10-04T00:41:25.354Z,94.60
2017-10-04T00:43:51.831Z,95.10
2017-10-04T00:46:18.307Z,94.60
2017-10-04T00:48:44.778Z,94.60
2017-10-04T00:51:11.957Z,94.60
2017-10-04T00:53:38.516Z,94.60
2017-10-04T00:56:05.774Z,94.60
2017-10-04T00:58:33.167Z,94.60
2017-10-04T01:00:59.739Z,94.60
2017-10-04T01:03:26.402Z,94.60
2017-10-04T01:05:52.869Z,94.60
2017-10-04T01:08:19.399Z,94.50
2017-10-04T01:10:46.683Z,94.40
2017-10-04T01:13:13.241Z,94.40
2017-10-04T01:15:39.893Z,94.40
2017-10-04T01:18:06.369Z,94.40
2017-10-04T01:20:32.908Z,94.40
2017-10-04T01:22:59.570Z,94.30
2017-10-04T01:25:26.126Z,94.30
2017-10-04T01:27:53.502Z,94.30
2017-10-04T01:30:20.670Z,94.60
2017-10-04T01:32:47.878Z,94.30
2017-10-04T01:35:14.362Z,94.30
2017-10-04T01:37:40.827Z,94.60
2017-10-04T01:40:07.273Z,94.30
2017-10-04T01:42:33.729Z,94.30
2017-10-04T01:45:00.289Z,94.30
2017-10-04T01:47:26.759Z,94.30
2017-10-04T01:49:53.244Z,94.40
2017-10-04T01:52:20.429Z,94.20
2017-10-04T01:54:46.983Z,94.20
2017-10-04T01:57:13.539Z,94.20
2017-10-04T01:59:39.959Z,94.30
2017-10-04T02:02:06.445Z,94.40
2017-10-04T02:04:33.721Z,94.50
2017-10-04T02:07:01.001Z,94.50
2017-10-04T02:09:27.519Z,94.40
2017-10-04T02:11:54.674Z,94.50
2017-10-04T02:14:21.282Z,94.50
2017-10-04T02:16:47.893Z,94.50
2017-10-04T02:19:14.403Z,94.70
2017-10-04T02:21:41.677Z,94.60
2017-10-04T02:24:08.146Z,94.60
2017-10-04T02:26:34.690Z,94.50
2017-10-04T02:29:01.884Z,95.00
2017-10-04T02:31:28.305Z,94.60
2017-10-04T02:33:55.493Z,94.70
2017-10-04T02:36:21.966Z,94.70
2017-10-04T02:38:48.508Z,94.70
2017-10-04T02:41:15.510Z,94.60
2017-10-04T02:43:42.028Z,94.60
2017-10-04T02:46:09.233Z,94.50
2017-10-04T02:48:35.826Z,95.00
2017-10-04T02:51:02.322Z,94.60
2017-10-04T02:53:28.773Z,95.10
2017-10-04T02:55:56.050Z,95.20
2017-10-04T02:58:23.235Z,95.30
2017-10-04T03:00:49.781Z,95.20
2017-10-04T03:03:16.987Z,95.30
2017-10-04T03:05:43.399Z,95.30
2017-10-04T03:08:10.682Z,95.40
2017-10-04T03:10:37.849Z,95.30
2017-10-04T03:13:05.130Z,95.30
2017-10-04T03:15:32.318Z,95.30
2017-10-04T03:17:58.772Z,95.30
2017-10-04T03:20:25.244Z,95.30
2017-10-04T03:22:51.676Z,95.30
2017-10-04T03:25:18.132Z,95.30
2017-10-04T03:27:44.684Z,95.30
2017-10-04T03:30:11.885Z,95.70
2017-10-04T03:32:38.415Z,95.40
2017-10-04T03:35:05.592Z,95.40
2017-10-04T03:37:32.146Z,95.40
2017-10-04T03:39:59.420Z,95.40
2017-10-04T03:42:26.611Z,95.40
2017-10-04T03:44:53.105Z,95.40
2017-10-04T03:47:19.573Z,95.40
2017-10-04T03:49:46.165Z,95.40
2017-10-04T03:52:13.441Z,95.30
2017-10-04T03:54:40.621Z,95.40
2017-10-04T03:57:07.032Z,95.30
2017-10-04T03:59:33.529Z,95.40
2017-10-04T04:01:59.967Z,95.50
2017-10-04T04:04:27.133Z,95.50
2017-10-04T04:06:53.572Z,95.50
2017-10-04T04:09:20.025Z,95.60
2017-10-04T04:11:46.482Z,95.50
2017-10-04T04:14:12.980Z,95.60
2017-10-04T04:16:39.478Z,95.60
2017-10-04T04:19:05.990Z,95.60
2017-10-04T04:21:33.272Z,95.50
2017-10-04T04:23:59.826Z,95.50
2017-10-04T04:26:26.305Z,95.60
2017-10-04T04:28:52.816Z,95.70
2017-10-04T04:31:19.521Z,95.60
2017-10-04T04:33:46.059Z,95.40
2017-10-04T04:36:16.911Z,95.70
2017-10-04T04:38:56.156Z,95.80
2017-10-04T04:41:23.173Z,95.80
2017-10-04T04:43:49.595Z,95.80
2017-10-04T04:46:16.034Z,95.80
2017-10-04T04:48:43.692Z,95.90
2017-10-04T04:51:10.173Z,95.90
2017-10-04T04:53:37.386Z,96.00
2017-10-04T04:56:03.799Z,96.00
2017-10-04T04:58:31.075Z,96.10
2017-10-04T05:00:58.349Z,96.20
2017-10-04T05:03:24.911Z,96.20
2017-10-04T05:07:33.323Z,96.20
2017-10-04T05:10:00.541Z,96.20
2017-10-04T05:12:27.060Z,96.20
2017-10-04T05:14:54.262Z,96.20
2017-10-04T05:17:20.736Z,96.20
2017-10-04T05:19:47.248Z,96.30
2017-10-04T05:22:13.807Z,96.20
2017-10-04T05:24:41.083Z,96.00
2017-10-04T05:27:07.529Z,96.10
2017-10-04T05:29:34.731Z,95.90
2017-10-04T05:32:01.272Z,95.80
2017-10-04T05:34:28.311Z,95.70
2017-10-04T05:36:54.923Z,95.70
2017-10-04T05:39:21.453Z,95.60
2017-10-04T05:41:48.658Z,95.70
2017-10-04T05:44:15.095Z,95.60
2017-10-04T05:46:41.519Z,95.60
2017-10-04T05:49:08.695Z,95.10
2017-10-04T05:51:35.984Z,94.90
2017-10-04T05:54:02.542Z,94.90
2017-10-04T05:56:29.817Z,94.40
2017-10-04T05:58:56.377Z,94.40
2017-10-04T06:01:23.573Z,94.20
2017-10-04T06:03:50.107Z,94.20
2017-10-04T06:06:16.665Z,94.10
2017-10-04T06:08:43.225Z,94.00
2017-10-04T06:11:09.783Z,94.00
2017-10-04T06:13:37.059Z,93.80
2017-10-04T06:16:03.716Z,93.90
2017-10-04T06:18:30.937Z,93.60
2017-10-04T06:20:57.448Z,93.50
2017-10-04T06:23:24.724Z,93.60
2017-10-04T06:25:51.282Z,93.60
2017-10-04T06:28:18.554Z,93.60
2017-10-04T06:30:45.931Z,93.70
2017-10-04T06:33:13.177Z,93.70
2017-10-04T06:35:39.644Z,93.70
2017-10-04T06:38:06.860Z,94.00
2017-10-04T06:40:33.493Z,94.00
2017-10-04T06:43:00.763Z,94.00
2017-10-04T06:45:27.973Z,93.90
2017-10-04T06:47:54.475Z,93.90
2017-10-04T06:50:20.960Z,93.80
2017-10-04T06:52:48.451Z,93.70
2017-10-04T06:55:18.980Z,93.60
2017-10-04T06:57:45.447Z,92.90
2017-10-04T07:00:11.954Z,92.70
2017-10-04T07:02:38.452Z,92.60
2017-10-04T07:05:05.062Z,92.30
2017-10-04T07:07:31.579Z,92.20
2017-10-04T07:09:58.126Z,91.90
2017-10-04T07:12:25.364Z,91.40
2017-10-04T07:14:52.575Z,91.40
2017-10-04T07:17:19.949Z,90.90
2017-10-04T07:19:46.515Z,90.90
2017-10-04T07:22:13.069Z,90.90
2017-10-04T07:24:40.342Z,89.10
2017-10-04T07:27:06.827Z,88.90
2017-10-04T07:29:33.459Z,86.60
2017-10-04T07:31:59.957Z,84.70
2017-10-04T07:34:26.409Z,82.50
2017-10-04T07:36:53.031Z,82.30
2017-10-04T07:39:20.305Z,81.70
2017-10-04T07:41:47.495Z,82.60
2017-10-04T07:44:14.343Z,82.60
2017-10-04T07:46:40.774Z,83.40
2017-10-04T07:49:08.244Z,84.10
2017-10-04T07:51:35.451Z,83.00
2017-10-04T07:54:03.117Z,83.10
2017-10-04T07:56:30.408Z,81.70
2017-10-04T07:58:57.378Z,81.50
2017-10-04T08:01:24.138Z,75.60
2017-10-04T08:03:50.696Z,71.10
2017-10-04T08:06:18.589Z,59.40
2017-10-04T08:08:45.143Z,59.40
2017-10-04T08:11:11.704Z,56.00
2017-10-04T08:13:38.362Z,53.60
2017-10-04T08:16:05.738Z,47.60
2017-10-04T08:18:33.017Z,47.10
2017-10-04T08:20:59.571Z,47.10
2017-10-04T08:23:26.947Z,46.60
2017-10-04T08:25:54.227Z,46.60
2017-10-04T08:28:20.705Z,46.50
2017-10-04T08:30:47.238Z,44.50
2017-10-04T08:33:14.680Z,43.40
2017-10-04T08:35:41.125Z,43.50
2017-10-04T08:38:07.536Z,42.70
2017-10-04T08:40:34.537Z,42.50
2017-10-04T08:43:01.030Z,43.10
2017-10-04T08:45:27.458Z,43.30
2017-10-04T08:47:55.894Z,44.00
2017-10-04T08:50:23.146Z,47.80
2017-10-04T08:52:49.741Z,47.80
2017-10-04T08:55:16.298Z,48.90
2017-10-04T08:57:43.578Z,51.80
2017-10-04T09:00:10.132Z,51.70
2017-10-04T09:02:37.316Z,53.40
2017-10-04T09:05:21.624Z,53.70
2017-10-04T09:07:48.114Z,54.90
2017-10-04T09:10:15.389Z,57.50
2017-10-04T09:12:41.947Z,57.50
2017-10-04T09:15:09.222Z,58.70
2017-10-04T09:17:35.696Z,58.70
2017-10-04T09:20:02.779Z,59.50
2017-10-04T09:22:30.431Z,60.00
2017-10-04T09:24:56.996Z,60.80
2017-10-04T09:27:23.504Z,60.40
2017-10-04T09:29:50.005Z,61.70
2017-10-04T09:32:16.444Z,62.20
2017-10-04T09:34:43.655Z,60.80
2017-10-04T09:37:10.131Z,60.70
2017-10-04T09:39:36.632Z,61.10
2017-10-04T09:42:03.842Z,61.70
2017-10-04T09:44:30.335Z,61.60
2017-10-04T09:46:57.454Z,62.20
2017-10-04T09:49:23.922Z,62.30
2017-10-04T09:51:50.462Z,61.60
2017-10-04T09:54:17.736Z,62.10
2017-10-04T09:56:44.930Z,61.80
2017-10-04T09:59:11.378Z,61.80
2017-10-04T10:01:37.922Z,61.70
2017-10-04T10:04:05.210Z,61.20
2017-10-04T10:06:32.287Z,61.20
2017-10-04T10:08:58.825Z,60.80
2017-10-04T10:11:26.101Z,60.80
2017-10-04T10:13:52.535Z,60.80
2017-10-04T10:16:19.118Z,60.30
2017-10-04T10:18:45.671Z,60.30
2017-10-04T10:21:12.869Z,59.40
2017-10-04T10:23:39.403Z,59.40
2017-10-04T10:26:05.861Z,59.50
2017-10-04T10:28:32.417Z,59.30
2017-10-04T10:30:58.879Z,59.70
2017-10-04T10:33:25.641Z,60.10
2017-10-04T10:35:52.176Z,60.20
2017-10-04T10:38:19.469Z,61.40
2017-10-04T10:40:45.976Z,61.10
2017-10-04T10:43:12.431Z,61.10
2017-10-04T10:45:38.943Z,61.00
2017-10-04T10:48:05.498Z,61.90
2017-10-04T10:50:32.706Z,63.00
2017-10-04T10:52:59.217Z,62.90
2017-10-04T10:55:26.469Z,61.90
2017-10-04T10:57:52.938Z,61.80
2017-10-04T11:00:19.399Z,60.60
2017-10-04T11:02:46.690Z,60.70
2017-10-04T11:05:13.964Z,60.30
2017-10-04T11:07:41.129Z,60.40
2017-10-04T11:10:08.347Z,60.20
2017-10-04T11:12:34.969Z,60.10
2017-10-04T11:15:01.408Z,60.30
2017-10-04T11:17:28.699Z,61.40
2017-10-04T11:19:55.975Z,59.80
2017-10-04T11:22:22.433Z,59.80
2017-10-04T11:24:48.988Z,59.90
2017-10-04T11:27:16.263Z,60.70
2017-10-04T11:29:43.537Z,61.00
2017-10-04T11:32:10.726Z,61.60
2017-10-04T11:34:37.371Z,61.60
2017-10-04T11:37:03.929Z,62.80
2017-10-04T11:39:31.406Z,62.10
2017-10-04T11:41:58.073Z,61.50
2017-10-04T11:44:24.626Z,61.30
2017-10-04T11:46:51.290Z,61.60
2017-10-04T11:49:17.949Z,60.60
2017-10-04T11:51:44.632Z,60.50
2017-10-04T11:54:11.277Z,60.90
2017-10-04T11:56:38.748Z,62.10
2017-10-04T11:59:05.306Z,62.80
2017-10-04T12:01:31.865Z,62.40
2017-10-04T12:03:58.424Z,60.80
2017-10-04T12:06:24.981Z,61.40
2017-10-04T12:08:51.540Z,62.50
2017-10-04T12:11:18.304Z,61.90
2017-10-04T12:13:44.963Z,59.70
2017-10-04T12:16:11.616Z,58.40
2017-10-04T12:18:39.921Z,59.30
2017-10-04T12:21:06.481Z,59.20
2017-10-04T12:23:33.037Z,59.70
2017-10-04T12:25:59.601Z,60.70
2017-10-04T12:28:26.362Z,61.60
2017-10-04T12:30:52.918Z,62.20
2017-10-04T12:33:19.476Z,62.40
2017-10-04T12:35:46.036Z,62.20
2017-10-04T12:38:12.691Z,61.60
2017-10-04T12:40:39.973Z,62.30
2017-10-04T12:43:07.143Z,62.30
2017-10-04T12:45:33.700Z,62.50
2017-10-04T12:48:01.081Z,62.10
2017-10-04T12:50:27.738Z,61.40
2017-10-04T12:52:54.504Z,61.10
2017-10-04T12:55:21.264Z,61.40
2017-10-04T12:57:47.824Z,61.50
2017-10-04T13:00:14.382Z,61.30
2017-10-04T13:02:40.940Z,61.60
2017-10-04T13:05:07.599Z,62.10
2017-10-04T13:07:34.363Z,62.90
2017-10-04T13:10:00.925Z,63.70
2017-10-04T13:12:27.686Z,63.00
2017-10-04T13:14:54.243Z,62.10
2017-10-04T13:17:21.192Z,62.20
2017-10-04T13:19:48.460Z,62.80
2017-10-04T13:22:15.863Z,62.90
2017-10-04T13:24:42.421Z,62.90
2017-10-04T13:27:08.980Z,62.90
2017-10-04T13:29:39.219Z,63.30
2017-10-04T13:32:05.879Z,63.30
2017-10-04T13:34:32.438Z,63.10
2017-10-04T13:36:58.997Z,62.00
2017-10-04T13:39:25.986Z,61.70
2017-10-04T13:41:52.828Z,61.50
2017-10-04T13:44:19.592Z,61.30
2017-10-04T13:46:46.149Z,61.20
2017-10-04T13:49:13.016Z,60.90
2017-10-04T13:51:39.677Z,60.60
2017-10-04T13:54:06.234Z,60.10
2017-10-04T13:56:33.304Z,60.70
2017-10-04T13:58:59.864Z,61.20
2017-10-04T14:01:27.224Z,60.90
2017-10-04T14:03:54.514Z,61.40
2017-10-04T14:06:21.175Z,61.40
2017-10-04T14:08:48.654Z,62.10
2017-10-04T14:11:15.417Z,62.00
2017-10-04T14:13:42.179Z,62.50
2017-10-04T14:16:08.744Z,62.90
2017-10-04T14:18:36.119Z,63.70
2017-10-04T14:21:02.677Z,63.80
2017-10-04T14:23:29.949Z,64.40
2017-10-04T14:25:56.514Z,64.20
2017-10-04T14:28:23.065Z,64.80
2017-10-04T14:30:50.441Z,65.50
2017-10-04T14:33:17.004Z,65.40
2017-10-04T14:35:43.558Z,65.10
2017-10-04T14:38:10.097Z,64.80
2017-10-04T14:40:37.373Z,65.10
2017-10-04T14:43:04.669Z,64.90
2017-10-04T14:45:31.736Z,64.80
2017-10-04T14:47:58.396Z,64.50
2017-10-04T14:50:24.954Z,65.00
2017-10-04T14:52:51.512Z,65.90
2017-10-04T14:55:18.002Z,66.50
2017-10-04T14:57:44.756Z,66.40
2017-10-04T15:00:11.290Z,66.20
2017-10-04T15:02:37.850Z,66.70
2017-10-04T15:05:04.510Z,67.00
2017-10-04T15:07:31.067Z,66.90
2017-10-04T15:09:57.622Z,66.50
2017-10-04T15:12:25.437Z,66.40
2017-10-04T15:14:52.177Z,66.40
2017-10-04T15:17:18.720Z,67.20
2017-10-04T15:19:45.291Z,67.70
2017-10-04T15:22:11.855Z,67.20
2017-10-04T15:24:38.337Z,67.30
2017-10-04T15:27:04.809Z,67.10
2017-10-04T15:29:31.265Z,67.50
2017-10-04T15:31:57.761Z,67.50
2017-10-04T15:34:25.023Z,68.30
2017-10-04T15:36:51.720Z,68.20
2017-10-04T15:39:18.246Z,68.80
2017-10-04T15:41:44.828Z,69.20
2017-10-04T15:44:11.388Z,69.80
2017-10-04T15:46:37.864Z,70.40
2017-10-04T15:49:04.402Z,70.30
2017-10-04T15:51:32.086Z,70.60
2017-10-04T15:53:58.785Z,70.70
2017-10-04T15:56:25.304Z,70.80
2017-10-04T15:58:52.686Z,71.10
2017-10-04T16:01:19.153Z,71.10
2017-10-04T16:03:45.633Z,71.30
2017-10-04T16:06:12.082Z,71.10
2017-10-04T16:08:38.557Z,71.10
2017-10-04T16:11:05.168Z,71.50
2017-10-04T16:13:31.726Z,71.60
2017-10-04T16:15:58.201Z,71.70
2017-10-04T16:18:24.665Z,72.00
2017-10-04T16:20:51.133Z,72.50
2017-10-04T16:23:17.651Z,72.70
2017-10-04T16:25:44.218Z,73.00
2017-10-04T16:28:10.666Z,72.70
2017-10-04T16:30:37.941Z,73.10
2017-10-04T16:33:05.028Z,73.00
2017-10-04T16:35:31.568Z,72.90
2017-10-04T16:37:58.847Z,73.50
2017-10-04T16:40:25.626Z,73.50
2017-10-04T16:42:52.171Z,73.60
2017-10-04T16:45:18.657Z,73.50
2017-10-04T16:47:45.289Z,73.40
2017-10-04T16:50:11.944Z,73.90
2017-10-04T16:52:38.500Z,73.90
2017-10-04T16:55:05.776Z,74.30
2017-10-04T16:57:32.337Z,74.20
2017-10-04T16:59:58.893Z,74.50
2017-10-04T17:02:26.403Z,74.70
2017-10-04T17:04:52.929Z,74.70
2017-10-04T17:07:20.114Z,75.20
2017-10-04T17:09:46.659Z,75.20
2017-10-04T17:12:13.885Z,75.40
2017-10-04T17:14:40.493Z,75.20
2017-10-04T17:17:07.010Z,75.70
2017-10-04T17:19:33.475Z,75.70
2017-10-04T17:22:00.782Z,76.20
2017-10-04T17:24:28.060Z,76.30
2017-10-04T17:26:54.574Z,76.30
2017-10-04T17:29:23.060Z,76.40
2017-10-04T17:31:49.572Z,76.50
2017-10-04T17:34:16.924Z,76.00
2017-10-04T17:36:44.200Z,76.20
2017-10-04T17:39:10.681Z,76.10
2017-10-04T17:41:38.170Z,77.10
2017-10-04T17:44:04.611Z,76.50
2017-10-04T17:46:31.893Z,76.70
2017-10-04T17:48:58.372Z,76.60
2017-10-04T17:51:29.611Z,76.70
2017-10-04T17:53:57.588Z,76.60
2017-10-04T17:56:24.110Z,76.90
2017-10-04T17:58:54.194Z,77.00
2017-10-04T18:01:23.674Z,77.10
2017-10-04T18:03:50.992Z,77.30
2017-10-04T18:06:19.703Z,77.40
2017-10-04T18:08:54.034Z,77.20
2017-10-04T18:11:21.907Z,77.40
2017-10-04T18:13:49.987Z,77.40
2017-10-04T18:16:18.513Z,77.50
2017-10-04T18:18:46.911Z,77.60
2017-10-04T18:21:16.006Z,78.00
2017-10-04T18:23:45.687Z,77.60
2017-10-04T18:26:13.337Z,77.50
2017-10-04T18:28:40.302Z,77.40
2017-10-04T18:31:09.479Z,77.50
2017-10-04T18:33:36.183Z,77.60
2017-10-04T18:36:03.354Z,77.80
2017-10-04T18:38:30.016Z,78.00
2017-10-04T18:40:56.980Z,78.00
2017-10-04T18:43:25.655Z,78.20
2017-10-04T18:45:52.656Z,78.30
2017-10-04T18:48:24.725Z,79.30
2017-10-04T18:50:54.474Z,78.60
2017-10-04T18:53:24.092Z,78.60
2017-10-04T18:55:53.319Z,78.80
2017-10-04T18:58:23.565Z,79.50
2017-10-04T19:00:51.481Z,79.50
2017-10-04T19:03:18.405Z,79.50
2017-10-04T19:05:47.505Z,79.60
2017-10-04T19:08:15.041Z,80.00
2017-10-04T19:10:43.297Z,80.10
2017-10-04T19:13:10.571Z,80.30
2017-10-04T19:15:38.154Z,80.50
2017-10-04T19:18:05.735Z,80.60
2017-10-04T19:20:32.803Z,80.10
2017-10-04T19:22:59.979Z,80.70
2017-10-04T19:25:27.153Z,80.80
2017-10-04T19:27:56.331Z,81.00
2017-10-04T19:30:23.230Z,81.40
2017-10-04T19:32:50.196Z,81.50
2017-10-04T19:35:16.720Z,81.80
2017-10-04T19:37:43.518Z,82.00
2017-10-04T19:40:10.796Z,82.30
2017-10-04T19:42:37.966Z,82.20
2017-10-04T19:45:04.532Z,82.30
2017-10-04T19:47:31.081Z,82.30
2017-10-04T19:49:57.580Z,82.40
2017-10-04T19:52:24.105Z,82.60
2017-10-04T19:54:53.227Z,82.90
2017-10-04T19:57:19.875Z,82.90
2017-10-04T19:59:47.404Z,83.00
2017-10-04T20:02:15.855Z,83.20
2017-10-04T20:04:42.721Z,83.20
2017-10-04T20:07:09.994Z,83.30
2017-10-04T20:09:37.779Z,83.20
2017-10-04T20:12:04.849Z,83.30
2017-10-04T20:14:31.832Z,83.30
2017-10-04T20:16:58.374Z,83.60
2017-10-04T20:19:24.880Z,83.60
2017-10-04T20:21:51.490Z,83.60
2017-10-04T20:24:18.153Z,83.80
2017-10-04T20:26:44.736Z,83.80
2017-10-04T20:29:12.367Z,83.90
2017-10-04T20:31:38.892Z,83.70
2017-10-04T20:34:05.408Z,83.80
2017-10-04T20:36:32.788Z,83.90
2017-10-04T20:39:00.029Z,84.00
2017-10-04T20:41:26.721Z,84.00
2017-10-04T20:43:53.380Z,83.90
2017-10-04T20:46:21.169Z,84.20
2017-10-04T20:48:47.736Z,84.20
2017-10-04T20:51:14.284Z,84.60
2017-10-04T20:53:40.769Z,84.80
2017-10-04T20:56:08.528Z,84.70
2017-10-04T20:58:35.689Z,84.80
2017-10-04T21:01:03.085Z,84.80
2017-10-04T21:03:30.859Z,84.80
2017-10-04T21:05:57.419Z,84.90
2017-10-04T21:08:23.985Z,84.80
2017-10-04T21:10:50.505Z,84.80
2017-10-04T21:13:17.300Z,85.00
2017-10-04T21:15:44.882Z,85.10
2017-10-04T21:18:11.440Z,85.20
2017-10-04T21:20:37.991Z,85.30
2017-10-04T21:23:05.678Z,85.40
2017-10-04T21:25:32.442Z,85.40
2017-10-04T21:27:59.104Z,85.40
2017-10-04T21:30:25.908Z,85.60
2017-10-04T21:32:52.562Z,85.60
2017-10-04T21:35:19.188Z,85.60
2017-10-04T21:37:46.462Z,85.60
2017-10-04T21:40:13.736Z,85.50
2017-10-04T21:42:41.215Z,85.80
2017-10-04T21:45:07.681Z,85.80
2017-10-04T21:47:34.233Z,86.00
2017-10-04T21:50:00.891Z,86.00
2017-10-04T21:52:28.539Z,85.90
2017-10-04T21:54:56.467Z,85.90
2017-10-04T21:57:22.939Z,86.00
2017-10-04T21:59:49.484Z,85.90
2017-10-04T22:02:16.695Z,85.70
2017-10-04T22:04:43.313Z,85.70
2017-10-04T22:07:09.868Z,85.80
2017-10-04T22:09:36.346Z,85.90
2017-10-04T22:12:02.883Z,85.90
2017-10-04T22:14:29.441Z,85.70
2017-10-04T22:16:55.897Z,85.70
2017-10-04T22:19:22.464Z,85.30
2017-10-04T22:21:49.016Z,85.30
2017-10-04T22:24:15.499Z,85.30
2017-10-04T22:26:42.029Z,85.20
2017-10-04T22:29:09.303Z,85.00
2017-10-04T22:31:36.520Z,84.70
2017-10-04T22:34:02.952Z,84.60
2017-10-04T22:36:29.490Z,84.40
2017-10-04T22:38:56.049Z,84.40
2017-10-04T22:41:22.490Z,84.40
2017-10-04T22:43:49.778Z,84.20
2017-10-04T22:46:17.051Z,84.00
2017-10-04T22:48:44.327Z,83.70
2017-10-04T22:51:10.886Z,83.70
2017-10-04T22:53:38.164Z,83.80
2017-10-04T22:56:04.717Z,83.60
2017-10-04T22:58:31.898Z,83.70
2017-10-04T23:00:58.357Z,83.70
2017-10-04T23:03:25.007Z,83.70
2017-10-04T23:05:52.281Z,83.90
2017-10-04T23:08:19.513Z,84.10
2017-10-04T23:10:46.039Z,84.10
2017-10-04T23:13:12.575Z,84.20
2017-10-04T23:15:39.588Z,84.20
2017-10-04T23:18:06.199Z,84.20
2017-10-04T23:20:33.576Z,84.70
2017-10-04T23:23:00.136Z,84.80
2017-10-04T23:25:26.663Z,84.80
2017-10-04T23:27:53.850Z,84.90
2017-10-04T23:30:21.044Z,85.00
2017-10-04T23:32:47.697Z,84.80
2017-10-04T23:35:14.980Z,85.10
2017-10-04T23:37:41.468Z,85.10
2017-10-04T23:40:07.985Z,85.30
2017-10-04T23:42:35.260Z,85.50
2017-10-04T23:45:01.821Z,85.50
2017-10-04T23:47:28.377Z,85.10
2017-10-04T23:49:55.655Z,85.00
2017-10-04T23:52:22.187Z,85.10
2017-10-04T23:54:48.661Z,85.00
2017-10-04T23:57:15.865Z,84.90
2017-10-04T23:59:42.397Z,84.90
